createdAt,value
2023-01-30T00:01:29.793Z,16.47
2023-01-30T00:06:32.490Z,16.35
2023-01-30T00:11:36.468Z,16.21
2023-01-30T00:16:39.214Z,16.12
2023-01-30T00:21:41.913Z,16.09
2023-01-30T00:26:45.959Z,15.99
2023-01-30T00:31:48.734Z,15.93
2023-01-30T00:37:07.147Z,15.85
2023-01-30T00:42:29.823Z,15.68
2023-01-30T00:47:32.663Z,15.52
2023-01-30T00:52:35.382Z,15.34
2023-01-30T00:57:39.451Z,15.25
2023-01-30T01:02:42.256Z,15.20
2023-01-30T01:07:45.068Z,15.15
2023-01-30T01:12:52.205Z,15.07
2023-01-30T01:17:55.398Z,15.00
2023-01-30T01:22:58.365Z,14.85
2023-01-30T01:28:02.388Z,14.83
2023-01-30T01:33:05.247Z,14.75
2023-01-30T01:38:07.985Z,14.64
2023-01-30T01:43:17.887Z,14.57
2023-01-30T01:48:26.135Z,14.50
2023-01-30T01:53:31.378Z,14.42
2023-01-30T01:58:38.824Z,14.34
2023-01-30T02:03:44.718Z,14.28
2023-01-30T02:08:50.227Z,14.18
2023-01-30T02:13:56.475Z,14.14
2023-01-30T02:18:59.769Z,14.04
2023-01-30T02:24:32.399Z,14.00
2023-01-30T02:30:17.174Z,13.94
2023-01-30T02:35:26.940Z,13.95
2023-01-30T02:40:41.369Z,13.87
2023-01-30T02:45:54.308Z,13.82
2023-01-30T02:51:00.863Z,13.76
2023-01-30T02:56:03.838Z,13.75
2023-01-30T03:01:33.134Z,13.66
2023-01-30T03:06:48.661Z,13.65
2023-01-30T03:11:58.676Z,13.58
2023-01-30T03:17:02.964Z,13.54
2023-01-30T03:22:07.100Z,13.50
2023-01-30T03:27:12.124Z,13.39
2023-01-30T03:32:14.787Z,13.34
2023-01-30T03:37:19.031Z,13.33
2023-01-30T03:42:21.869Z,13.34
2023-01-30T03:47:24.835Z,13.30
2023-01-30T03:52:30.155Z,13.24
2023-01-30T03:57:32.868Z,13.23
2023-01-30T04:02:35.828Z,13.19
2023-01-30T04:07:39.958Z,13.15
2023-01-30T04:12:44.896Z,13.11
2023-01-30T04:17:48.307Z,13.08
2023-01-30T04:23:10.971Z,13.03
2023-01-30T04:28:14.657Z,13.01
2023-01-30T04:33:19.830Z,12.97
2023-01-30T04:38:24.851Z,12.94
2023-01-30T04:43:29.474Z,12.89
2023-01-30T04:48:54.171Z,12.88
2023-01-30T04:53:58.326Z,12.84
2023-01-30T04:59:01.068Z,12.81
2023-01-30T05:04:09.212Z,12.74
2023-01-30T05:09:13.248Z,12.74
2023-01-30T05:14:16.106Z,12.74
2023-01-30T05:19:18.794Z,12.66
2023-01-30T05:24:22.873Z,12.69
2023-01-30T05:29:25.619Z,12.64
2023-01-30T05:34:28.508Z,12.61
2023-01-30T05:39:32.612Z,12.60
2023-01-30T05:44:35.304Z,12.58
2023-01-30T05:49:37.928Z,12.56
2023-01-30T05:54:41.977Z,12.54
2023-01-30T05:59:44.750Z,12.45
2023-01-30T06:04:47.384Z,12.47
2023-01-30T06:09:51.399Z,12.46
2023-01-30T06:14:54.104Z,12.46
2023-01-30T06:19:56.779Z,12.42
2023-01-30T06:25:00.861Z,12.40
2023-01-30T06:30:03.680Z,12.37
2023-01-30T06:35:07.110Z,12.38
2023-01-30T06:40:13.036Z,12.34
2023-01-30T06:45:17.561Z,12.33
2023-01-30T06:50:22.095Z,12.33
2023-01-30T06:55:28.387Z,12.31
2023-01-30T07:00:31.463Z,12.28
2023-01-30T07:05:34.168Z,12.26
2023-01-30T07:10:38.463Z,12.25
2023-01-30T07:15:41.377Z,12.25
2023-01-30T07:20:47.995Z,12.22
2023-01-30T07:25:52.023Z,12.22
2023-01-30T07:30:54.734Z,12.21
2023-01-30T07:35:57.443Z,12.22
2023-01-30T07:41:01.457Z,12.17
2023-01-30T07:46:04.724Z,12.18
2023-01-30T07:51:07.714Z,12.17
2023-01-30T07:56:14.101Z,12.15
2023-01-30T08:01:16.929Z,12.17
2023-01-30T08:06:19.937Z,12.13
2023-01-30T08:11:23.912Z,12.14
2023-01-30T08:16:26.885Z,12.14
2023-01-30T08:21:29.576Z,12.12
2023-01-30T08:26:33.649Z,12.11
2023-01-30T08:31:36.426Z,12.09
2023-01-30T08:36:39.107Z,12.09
2023-01-30T08:41:43.261Z,12.10
2023-01-30T08:46:46.001Z,12.11
2023-01-30T08:51:48.660Z,12.13
2023-01-30T08:56:52.711Z,12.09
2023-01-30T09:01:55.379Z,12.11
2023-01-30T09:06:58.275Z,12.13
2023-01-30T09:12:02.266Z,12.13
2023-01-30T09:17:04.954Z,12.13
2023-01-30T09:22:08.336Z,12.08
2023-01-30T09:27:12.383Z,12.09
2023-01-30T09:32:15.066Z,12.11
2023-01-30T09:37:17.923Z,12.09
2023-01-30T09:42:35.142Z,12.09
2023-01-30T09:47:46.785Z,12.08
2023-01-30T09:52:57.042Z,12.08
2023-01-30T09:58:01.733Z,12.06
2023-01-30T10:03:10.292Z,12.08
2023-01-30T10:08:35.720Z,12.05
2023-01-30T10:14:00.302Z,12.06
2023-01-30T10:19:35.723Z,12.06
2023-01-30T10:24:48.899Z,12.05
2023-01-30T10:29:56.456Z,12.03
2023-01-30T10:35:01.986Z,12.01
2023-01-30T10:40:08.419Z,12.27
2023-01-30T10:45:16.252Z,12.74
2023-01-30T10:50:20.980Z,13.23
2023-01-30T10:55:37.084Z,13.79
2023-01-30T11:00:44.651Z,14.29
2023-01-30T11:05:50.347Z,14.77
2023-01-30T11:10:54.502Z,15.26
2023-01-30T11:16:00.325Z,15.66
2023-01-30T11:21:07.688Z,16.01
2023-01-30T11:26:20.648Z,16.22
2023-01-30T11:31:40.287Z,16.35
2023-01-30T11:36:44.033Z,16.40
2023-01-30T11:41:58.497Z,16.36
2023-01-30T11:47:04.324Z,16.34
2023-01-30T11:52:07.367Z,16.26
2023-01-30T11:57:13.247Z,16.24
2023-01-30T12:02:22.065Z,16.66
2023-01-30T12:07:26.631Z,16.84
2023-01-30T12:12:32.153Z,16.82
2023-01-30T12:17:43.740Z,16.82
2023-01-30T12:22:52.954Z,16.80
2023-01-30T12:28:00.004Z,16.79
2023-01-30T12:33:06.487Z,17.33
2023-01-30T12:38:18.376Z,17.69
2023-01-30T12:43:36.074Z,18.02
2023-01-30T12:49:13.986Z,18.23
2023-01-30T12:54:26.312Z,18.39
2023-01-30T12:59:34.994Z,18.63
2023-01-30T13:05:01.942Z,18.68
2023-01-30T13:10:10.705Z,18.75
2023-01-30T13:15:19.746Z,18.77
2023-01-30T13:20:37.752Z,18.77
2023-01-30T13:25:43.879Z,18.89
2023-01-30T13:30:47.358Z,19.10
2023-01-30T13:35:53.843Z,19.08
2023-01-30T13:40:58.605Z,19.10
2023-01-30T13:46:03.981Z,19.08
2023-01-30T13:51:17.566Z,19.06
2023-01-30T13:56:40.729Z,18.92
2023-01-30T14:02:10.841Z,18.78
2023-01-30T14:07:18.838Z,18.80
2023-01-30T14:12:23.977Z,18.69
2023-01-30T14:17:26.697Z,18.59
2023-01-30T14:22:35.288Z,18.50
2023-01-30T14:27:37.981Z,18.42
2023-01-30T14:32:56.816Z,18.35
2023-01-30T14:38:21.911Z,18.26
2023-01-30T14:43:48.190Z,18.20
2023-01-30T14:48:55.684Z,18.27
2023-01-30T14:54:01.650Z,18.19
2023-01-30T14:59:06.693Z,18.05
2023-01-30T15:04:15.190Z,17.86
2023-01-30T15:09:19.878Z,17.83
2023-01-30T15:14:28.716Z,17.70
2023-01-30T15:19:55.348Z,17.60
2023-01-30T15:25:30.731Z,17.44
2023-01-30T15:30:44.752Z,17.37
2023-01-30T15:35:47.563Z,17.25
2023-01-30T15:40:52.044Z,17.17
2023-01-30T15:46:06.339Z,17.04
2023-01-30T15:51:12.978Z,16.98
2023-01-30T15:56:21.864Z,16.87
2023-01-30T16:01:25.030Z,16.77
2023-01-30T16:06:32.571Z,16.56
2023-01-30T16:11:39.985Z,16.34
2023-01-30T16:16:44.171Z,16.35
2023-01-30T16:21:47.254Z,16.22
2023-01-30T16:26:55.233Z,16.09
2023-01-30T16:31:58.086Z,15.94
2023-01-30T16:37:04.779Z,15.95
2023-01-30T16:42:24.035Z,15.82
2023-01-30T16:47:28.852Z,15.80
2023-01-30T16:52:34.574Z,15.70
2023-01-30T16:57:40.462Z,15.58
2023-01-30T17:02:43.753Z,15.57
2023-01-30T17:07:47.489Z,15.47
2023-01-30T17:12:53.119Z,15.47
2023-01-30T17:17:55.924Z,15.34
2023-01-30T17:23:02.388Z,15.29
2023-01-30T17:28:08.210Z,15.21
2023-01-30T17:33:11.916Z,15.20
2023-01-30T17:38:14.777Z,15.48
2023-01-30T17:43:18.936Z,15.96
2023-01-30T17:48:21.781Z,16.34
2023-01-30T17:53:24.541Z,16.75
2023-01-30T17:58:28.633Z,17.05
2023-01-30T18:03:31.316Z,17.35
2023-01-30T18:08:34.016Z,17.48
2023-01-30T18:13:38.837Z,17.62
2023-01-30T18:18:41.592Z,17.59
2023-01-30T18:23:44.725Z,17.58
2023-01-30T18:28:49.136Z,17.58
2023-01-30T18:33:55.096Z,17.61
2023-01-30T18:38:57.756Z,17.52
2023-01-30T18:44:03.663Z,17.44
2023-01-30T18:49:08.195Z,17.52
2023-01-30T18:54:10.886Z,17.45
2023-01-30T18:59:14.977Z,17.47
2023-01-30T19:04:17.818Z,17.43
2023-01-30T19:09:21.393Z,17.31
2023-01-30T19:14:25.608Z,17.21
2023-01-30T19:19:28.371Z,17.08
2023-01-30T19:24:31.108Z,17.07
2023-01-30T19:29:35.145Z,16.92
2023-01-30T19:34:38.514Z,16.94
2023-01-30T19:39:41.290Z,16.89
2023-01-30T19:44:45.338Z,16.83
2023-01-30T19:49:48.022Z,16.74
2023-01-30T19:54:50.821Z,16.73
2023-01-30T19:59:54.819Z,16.62
2023-01-30T20:04:58.193Z,16.54
2023-01-30T20:10:00.901Z,16.49
2023-01-30T20:48:39.364Z,15.86
2023-01-30T20:53:47.644Z,15.81
2023-01-30T20:58:55.851Z,15.77
2023-01-30T21:04:00.594Z,15.70
2023-01-30T21:09:03.652Z,15.61
2023-01-30T21:14:06.587Z,15.54
2023-01-30T21:19:15.043Z,15.54
2023-01-30T21:24:19.420Z,15.35
2023-01-30T21:29:25.167Z,15.30
2023-01-30T21:34:29.489Z,15.36
2023-01-30T21:39:49.834Z,15.30
2023-01-30T21:44:52.589Z,15.27
2023-01-30T21:49:56.644Z,15.21
2023-01-30T21:54:59.513Z,15.11
2023-01-30T22:00:02.286Z,15.08
2023-01-30T22:05:14.862Z,14.99
2023-01-30T22:10:17.878Z,14.92
2023-01-30T22:15:21.770Z,14.92
2023-01-30T22:20:26.196Z,14.83
2023-01-30T22:25:29.014Z,14.72
2023-01-30T22:30:31.906Z,14.80
2023-01-30T22:35:36.119Z,14.76
2023-01-30T22:40:38.833Z,14.77
2023-01-30T22:45:41.534Z,14.75
2023-01-30T22:50:45.612Z,14.69
2023-01-30T22:55:48.737Z,14.75
2023-01-30T23:00:51.471Z,14.69
2023-01-30T23:05:59.369Z,14.65
2023-01-30T23:11:07.312Z,14.65
2023-01-30T23:16:10.484Z,14.62
2023-01-30T23:21:15.528Z,14.58
2023-01-30T23:26:18.218Z,14.59
2023-01-30T23:31:22.794Z,14.57
2023-01-30T23:36:27.352Z,14.54
2023-01-30T23:41:31.466Z,14.50
2023-01-30T23:46:35.626Z,14.48
2023-01-30T23:51:41.787Z,14.44
2023-01-30T23:56:45.341Z,14.46
